sensor_id;sensor_type;location;lat;lon;timestamp;temperature;humidity
24162;DHT22;12318;51.262;7.066;2023-02-28T00:00:30;0.90;93.70
24162;DHT22;12318;51.262;7.066;2023-02-28T00:03:08;1.00;93.90
24162;DHT22;12318;51.262;7.066;2023-02-28T00:05:37;0.90;94.00
24162;DHT22;12318;51.262;7.066;2023-02-28T00:08:02;1.00;94.30
24162;DHT22;12318;51.262;7.066;2023-02-28T00:10:30;1.10;94.20
24162;DHT22;12318;51.262;7.066;2023-02-28T00:13:04;1.00;94.10
24162;DHT22;12318;51.262;7.066;2023-02-28T00:15:31;1.00;94.20
24162;DHT22;12318;51.262;7.066;2023-02-28T00:17:57;0.90;94.40
24162;DHT22;12318;51.262;7.066;2023-02-28T00:20:24;0.70;94.50
24162;DHT22;12318;51.262;7.066;2023-02-28T00:22:51;0.80;95.10
24162;DHT22;12318;51.262;7.066;2023-02-28T00:25:20;0.90;95.10
24162;DHT22;12318;51.262;7.066;2023-02-28T00:27:46;0.90;95.00
24162;DHT22;12318;51.262;7.066;2023-02-28T00:30:18;1.00;95.40
24162;DHT22;12318;51.262;7.066;2023-02-28T00:32:44;1.10;95.20
24162;DHT22;12318;51.262;7.066;2023-02-28T00:35:11;1.10;95.00
24162;DHT22;12318;51.262;7.066;2023-02-28T00:37:37;1.00;94.80
24162;DHT22;12318;51.262;7.066;2023-02-28T00:40:08;1.00;94.90
24162;DHT22;12318;51.262;7.066;2023-02-28T00:42:38;0.90;95.00
24162;DHT22;12318;51.262;7.066;2023-02-28T00:45:07;1.00;95.00
24162;DHT22;12318;51.262;7.066;2023-02-28T00:47:33;0.70;95.10
24162;DHT22;12318;51.262;7.066;2023-02-28T00:50:03;0.50;95.80
24162;DHT22;12318;51.262;7.066;2023-02-28T00:52:31;0.30;96.60
24162;DHT22;12318;51.262;7.066;2023-02-28T00:55:00;0.20;97.30
24162;DHT22;12318;51.262;7.066;2023-02-28T00:57:26;0.20;97.60
24162;DHT22;12318;51.262;7.066;2023-02-28T00:59:58;0.20;97.80
24162;DHT22;12318;51.262;7.066;2023-02-28T01:02:39;0.20;98.10
24162;DHT22;12318;51.262;7.066;2023-02-28T01:05:06;0.20;98.10
24162;DHT22;12318;51.262;7.066;2023-02-28T01:07:31;0.30;98.30
24162;DHT22;12318;51.262;7.066;2023-02-28T01:09:57;0.20;98.20
24162;DHT22;12318;51.262;7.066;2023-02-28T01:12:23;0.40;98.30
24162;DHT22;12318;51.262;7.066;2023-02-28T01:14:51;0.50;98.40
24162;DHT22;12318;51.262;7.066;2023-02-28T01:17:17;0.70;98.10
24162;DHT22;12318;51.262;7.066;2023-02-28T01:19:43;0.80;97.50
24162;DHT22;12318;51.262;7.066;2023-02-28T01:22:10;0.70;97.10
24162;DHT22;12318;51.262;7.066;2023-02-28T01:24:38;0.60;97.10
24162;DHT22;12318;51.262;7.066;2023-02-28T01:27:05;0.60;97.10
24162;DHT22;12318;51.262;7.066;2023-02-28T01:29:31;0.50;96.90
24162;DHT22;12318;51.262;7.066;2023-02-28T01:32:02;0.30;97.20
24162;DHT22;12318;51.262;7.066;2023-02-28T01:34:28;0.20;98.00
24162;DHT22;12318;51.262;7.066;2023-02-28T01:36:54;0.30;98.00
24162;DHT22;12318;51.262;7.066;2023-02-28T01:39:22;0.40;98.20
24162;DHT22;12318;51.262;7.066;2023-02-28T01:41:51;0.40;98.10
24162;DHT22;12318;51.262;7.066;2023-02-28T01:47:29;0.50;98.40
24162;DHT22;12318;51.262;7.066;2023-02-28T01:49:58;0.60;98.30
24162;DHT22;12318;51.262;7.066;2023-02-28T01:52:26;0.60;98.00
24162;DHT22;12318;51.262;7.066;2023-02-28T01:54:55;0.50;97.60
24162;DHT22;12318;51.262;7.066;2023-02-28T01:57:25;0.40;97.50
24162;DHT22;12318;51.262;7.066;2023-02-28T02:02:24;0.20;97.30
24162;DHT22;12318;51.262;7.066;2023-02-28T02:07:25;0.00;97.70
24162;DHT22;12318;51.262;7.066;2023-02-28T02:10:02;0.00;98.30
24162;DHT22;12318;51.262;7.066;2023-02-28T02:15:38;-0.20;98.80
24162;DHT22;12318;51.262;7.066;2023-02-28T02:29:38;-0.30;99.90
24162;DHT22;12318;51.262;7.066;2023-02-28T02:40:32;-0.70;99.90
24162;DHT22;12318;51.262;7.066;2023-02-28T02:43:15;-0.60;99.90
24162;DHT22;12318;51.262;7.066;2023-02-28T02:45:52;-0.80;99.90
24162;DHT22;12318;51.262;7.066;2023-02-28T02:48:24;-0.70;99.90
24162;DHT22;12318;51.262;7.066;2023-02-28T02:50:59;-0.80;99.90
24162;DHT22;12318;51.262;7.066;2023-02-28T02:53:34;-0.70;99.90
24162;DHT22;12318;51.262;7.066;2023-02-28T02:56:02;-0.70;99.90
24162;DHT22;12318;51.262;7.066;2023-02-28T02:58:32;-0.70;99.90
24162;DHT22;12318;51.262;7.066;2023-02-28T03:01:05;-0.90;99.90
24162;DHT22;12318;51.262;7.066;2023-02-28T03:03:33;-0.90;99.90
24162;DHT22;12318;51.262;7.066;2023-02-28T03:06:03;-0.70;99.90
24162;DHT22;12318;51.262;7.066;2023-02-28T03:08:36;-0.70;99.90
24162;DHT22;12318;51.262;7.066;2023-02-28T03:11:09;-0.80;99.90
24162;DHT22;12318;51.262;7.066;2023-02-28T03:16:58;-0.80;99.90
24162;DHT22;12318;51.262;7.066;2023-02-28T03:19:31;-0.80;99.90
24162;DHT22;12318;51.262;7.066;2023-02-28T03:35:22;-0.60;99.90
24162;DHT22;12318;51.262;7.066;2023-02-28T03:37:55;-0.60;99.90
24162;DHT22;12318;51.262;7.066;2023-02-28T03:40:31;-0.60;99.90
24162;DHT22;12318;51.262;7.066;2023-02-28T03:43:03;-0.70;99.90
24162;DHT22;12318;51.262;7.066;2023-02-28T03:45:36;-0.70;99.90
24162;DHT22;12318;51.262;7.066;2023-02-28T03:50:45;-0.90;99.90
24162;DHT22;12318;51.262;7.066;2023-02-28T03:53:28;-0.80;99.90
24162;DHT22;12318;51.262;7.066;2023-02-28T03:56:05;-0.70;99.90
24162;DHT22;12318;51.262;7.066;2023-02-28T03:58:57;-0.60;99.90
24162;DHT22;12318;51.262;7.066;2023-02-28T04:01:45;-0.80;99.90
24162;DHT22;12318;51.262;7.066;2023-02-28T04:04:15;-0.90;99.90
24162;DHT22;12318;51.262;7.066;2023-02-28T04:06:41;-0.90;99.90
24162;DHT22;12318;51.262;7.066;2023-02-28T04:09:09;-1.00;99.90
24162;DHT22;12318;51.262;7.066;2023-02-28T04:11:50;-1.10;99.90
24162;DHT22;12318;51.262;7.066;2023-02-28T04:14:23;-1.00;99.90
24162;DHT22;12318;51.262;7.066;2023-02-28T04:16:54;-1.00;99.90
24162;DHT22;12318;51.262;7.066;2023-02-28T04:19:20;-1.00;99.90
24162;DHT22;12318;51.262;7.066;2023-02-28T04:21:49;-1.00;99.60
24162;DHT22;12318;51.262;7.066;2023-02-28T04:24:19;-1.00;99.40
24162;DHT22;12318;51.262;7.066;2023-02-28T04:26:48;-1.00;99.00
24162;DHT22;12318;51.262;7.066;2023-02-28T04:29:29;-1.00;98.60
24162;DHT22;12318;51.262;7.066;2023-02-28T04:32:00;-1.00;98.10
24162;DHT22;12318;51.262;7.066;2023-02-28T04:34:30;-0.90;97.90
24162;DHT22;12318;51.262;7.066;2023-02-28T04:36:56;-0.90;97.60
24162;DHT22;12318;51.262;7.066;2023-02-28T04:39:25;-0.90;97.30
24162;DHT22;12318;51.262;7.066;2023-02-28T04:41:51;-0.80;96.90
24162;DHT22;12318;51.262;7.066;2023-02-28T04:47:42;-0.80;96.60
24162;DHT22;12318;51.262;7.066;2023-02-28T04:50:08;-0.80;96.20
24162;DHT22;12318;51.262;7.066;2023-02-28T04:52:34;-0.90;96.40
24162;DHT22;12318;51.262;7.066;2023-02-28T04:55:00;-0.90;96.30
24162;DHT22;12318;51.262;7.066;2023-02-28T04:57:26;-0.90;96.10
24162;DHT22;12318;51.262;7.066;2023-02-28T04:59:55;-0.90;96.10
24162;DHT22;12318;51.262;7.066;2023-02-28T05:02:21;-0.90;95.90
24162;DHT22;12318;51.262;7.066;2023-02-28T05:04:48;-0.80;95.70
24162;DHT22;12318;51.262;7.066;2023-02-28T05:07:14;-0.90;95.70
24162;DHT22;12318;51.262;7.066;2023-02-28T05:09:42;-0.90;95.60
24162;DHT22;12318;51.262;7.066;2023-02-28T05:12:09;-0.90;95.60
24162;DHT22;12318;51.262;7.066;2023-02-28T05:14:35;-0.90;95.40
24162;DHT22;12318;51.262;7.066;2023-02-28T05:17:02;-0.90;95.50
24162;DHT22;12318;51.262;7.066;2023-02-28T05:19:30;-0.90;95.20
24162;DHT22;12318;51.262;7.066;2023-02-28T05:21:56;-1.00;95.00
24162;DHT22;12318;51.262;7.066;2023-02-28T05:24:27;-0.90;94.80
24162;DHT22;12318;51.262;7.066;2023-02-28T05:26:54;-1.00;94.70
24162;DHT22;12318;51.262;7.066;2023-02-28T05:29:25;-1.00;94.70
24162;DHT22;12318;51.262;7.066;2023-02-28T05:31:51;-1.00;94.70
24162;DHT22;12318;51.262;7.066;2023-02-28T05:34:17;-1.00;94.70
24162;DHT22;12318;51.262;7.066;2023-02-28T05:36:43;-1.00;94.70
24162;DHT22;12318;51.262;7.066;2023-02-28T05:39:09;-1.00;94.50
24162;DHT22;12318;51.262;7.066;2023-02-28T05:41:44;-1.00;94.20
24162;DHT22;12318;51.262;7.066;2023-02-28T05:44:13;-1.00;94.10
24162;DHT22;12318;51.262;7.066;2023-02-28T05:46:43;-1.00;94.40
24162;DHT22;12318;51.262;7.066;2023-02-28T05:49:12;-1.10;94.20
24162;DHT22;12318;51.262;7.066;2023-02-28T05:51:38;-1.20;94.40
24162;DHT22;12318;51.262;7.066;2023-02-28T05:54:08;-1.20;94.50
24162;DHT22;12318;51.262;7.066;2023-02-28T05:56:34;-1.10;94.50
24162;DHT22;12318;51.262;7.066;2023-02-28T05:59:03;-1.10;94.00
24162;DHT22;12318;51.262;7.066;2023-02-28T06:01:35;-1.10;94.00
24162;DHT22;12318;51.262;7.066;2023-02-28T06:04:05;-1.10;94.20
24162;DHT22;12318;51.262;7.066;2023-02-28T06:06:36;-1.10;94.00
24162;DHT22;12318;51.262;7.066;2023-02-28T06:09:06;-1.10;94.20
24162;DHT22;12318;51.262;7.066;2023-02-28T06:11:39;-1.20;93.50
24162;DHT22;12318;51.262;7.066;2023-02-28T06:14:06;-1.10;93.40
24162;DHT22;12318;51.262;7.066;2023-02-28T06:16:39;-1.20;93.30
24162;DHT22;12318;51.262;7.066;2023-02-28T06:19:04;-1.10;93.40
24162;DHT22;12318;51.262;7.066;2023-02-28T06:21:33;-1.10;93.50
24162;DHT22;12318;51.262;7.066;2023-02-28T06:24:00;-1.00;93.20
24162;DHT22;12318;51.262;7.066;2023-02-28T06:26:29;-0.90;93.10
24162;DHT22;12318;51.262;7.066;2023-02-28T06:29:02;-0.90;92.80
24162;DHT22;12318;51.262;7.066;2023-02-28T06:31:31;-0.80;92.60
24162;DHT22;12318;51.262;7.066;2023-02-28T06:34:12;-0.90;92.40
24162;DHT22;12318;51.262;7.066;2023-02-28T06:36:41;-0.80;92.60
24162;DHT22;12318;51.262;7.066;2023-02-28T06:39:15;-0.80;92.20
24162;DHT22;12318;51.262;7.066;2023-02-28T06:41:48;-0.90;91.90
24162;DHT22;12318;51.262;7.066;2023-02-28T06:44:21;-1.00;91.90
24162;DHT22;12318;51.262;7.066;2023-02-28T06:47:05;-0.90;92.30
24162;DHT22;12318;51.262;7.066;2023-02-28T06:49:36;-1.10;92.20
24162;DHT22;12318;51.262;7.066;2023-02-28T06:52:05;-1.00;92.20
24162;DHT22;12318;51.262;7.066;2023-02-28T06:54:31;-1.00;92.20
24162;DHT22;12318;51.262;7.066;2023-02-28T06:56:57;-1.00;92.10
24162;DHT22;12318;51.262;7.066;2023-02-28T06:59:41;-1.10;91.90
24162;DHT22;12318;51.262;7.066;2023-02-28T07:02:12;-1.00;91.90
24162;DHT22;12318;51.262;7.066;2023-02-28T07:04:38;-1.00;92.00
24162;DHT22;12318;51.262;7.066;2023-02-28T07:07:05;-1.00;91.90
24162;DHT22;12318;51.262;7.066;2023-02-28T07:09:31;-1.00;91.80
24162;DHT22;12318;51.262;7.066;2023-02-28T07:12:05;-1.00;91.60
24162;DHT22;12318;51.262;7.066;2023-02-28T07:14:36;-1.00;91.70
24162;DHT22;12318;51.262;7.066;2023-02-28T07:17:09;-1.00;91.50
24162;DHT22;12318;51.262;7.066;2023-02-28T07:19:40;-0.80;91.30
24162;DHT22;12318;51.262;7.066;2023-02-28T07:22:06;-0.80;91.00
24162;DHT22;12318;51.262;7.066;2023-02-28T07:24:32;-0.70;91.10
24162;DHT22;12318;51.262;7.066;2023-02-28T07:26:59;-0.70;90.90
24162;DHT22;12318;51.262;7.066;2023-02-28T07:29:29;-0.70;91.10
24162;DHT22;12318;51.262;7.066;2023-02-28T07:31:55;-0.60;91.30
24162;DHT22;12318;51.262;7.066;2023-02-28T07:34:22;-0.60;91.60
24162;DHT22;12318;51.262;7.066;2023-02-28T07:36:57;-0.50;91.40
24162;DHT22;12318;51.262;7.066;2023-02-28T07:39:25;-0.40;91.60
24162;DHT22;12318;51.262;7.066;2023-02-28T07:41:57;-0.50;91.30
24162;DHT22;12318;51.262;7.066;2023-02-28T07:44:23;-0.60;91.70
24162;DHT22;12318;51.262;7.066;2023-02-28T07:46:49;-0.40;91.80
24162;DHT22;12318;51.262;7.066;2023-02-28T07:49:15;-0.40;91.40
24162;DHT22;12318;51.262;7.066;2023-02-28T07:51:41;-0.20;91.20
24162;DHT22;12318;51.262;7.066;2023-02-28T07:54:07;-0.20;91.20
24162;DHT22;12318;51.262;7.066;2023-02-28T07:56:33;-0.20;90.50
24162;DHT22;12318;51.262;7.066;2023-02-28T07:58:58;-0.10;90.20
24162;DHT22;12318;51.262;7.066;2023-02-28T08:01:25;0.20;90.10
24162;DHT22;12318;51.262;7.066;2023-02-28T08:03:50;0.20;87.30
24162;DHT22;12318;51.262;7.066;2023-02-28T08:06:20;0.20;86.70
24162;DHT22;12318;51.262;7.066;2023-02-28T08:08:49;0.20;83.30
24162;DHT22;12318;51.262;7.066;2023-02-28T08:11:16;0.40;82.70
24162;DHT22;12318;51.262;7.066;2023-02-28T08:13:49;0.60;82.70
24162;DHT22;12318;51.262;7.066;2023-02-28T08:16:21;0.70;81.90
24162;DHT22;12318;51.262;7.066;2023-02-28T08:18:54;0.90;79.40
24162;DHT22;12318;51.262;7.066;2023-02-28T08:21:23;0.90;75.00
24162;DHT22;12318;51.262;7.066;2023-02-28T08:23:49;1.10;74.10
24162;DHT22;12318;51.262;7.066;2023-02-28T08:26:17;1.20;72.50
24162;DHT22;12318;51.262;7.066;2023-02-28T08:28:43;1.30;71.00
24162;DHT22;12318;51.262;7.066;2023-02-28T08:31:11;1.50;69.50
24162;DHT22;12318;51.262;7.066;2023-02-28T08:33:37;1.50;68.60
24162;DHT22;12318;51.262;7.066;2023-02-28T08:36:05;1.40;66.00
24162;DHT22;12318;51.262;7.066;2023-02-28T08:38:31;1.40;65.60
24162;DHT22;12318;51.262;7.066;2023-02-28T08:40:59;1.50;64.70
24162;DHT22;12318;51.262;7.066;2023-02-28T08:43:26;1.60;64.90
24162;DHT22;12318;51.262;7.066;2023-02-28T08:45:55;1.80;65.10
24162;DHT22;12318;51.262;7.066;2023-02-28T08:48:25;1.90;63.30
24162;DHT22;12318;51.262;7.066;2023-02-28T08:51:00;1.80;65.10
24162;DHT22;12318;51.262;7.066;2023-02-28T08:53:26;2.00;65.00
24162;DHT22;12318;51.262;7.066;2023-02-28T08:55:57;2.20;64.70
24162;DHT22;12318;51.262;7.066;2023-02-28T08:58:23;2.00;62.70
24162;DHT22;12318;51.262;7.066;2023-02-28T09:00:49;2.00;65.40
24162;DHT22;12318;51.262;7.066;2023-02-28T09:03:15;2.10;65.70
24162;DHT22;12318;51.262;7.066;2023-02-28T09:05:41;2.10;67.10
24162;DHT22;12318;51.262;7.066;2023-02-28T09:08:06;2.10;65.10
24162;DHT22;12318;51.262;7.066;2023-02-28T09:10:32;2.10;65.70
24162;DHT22;12318;51.262;7.066;2023-02-28T09:12:59;2.10;64.90
24162;DHT22;12318;51.262;7.066;2023-02-28T09:15:25;2.00;66.40
24162;DHT22;12318;51.262;7.066;2023-02-28T09:17:51;2.00;65.90
24162;DHT22;12318;51.262;7.066;2023-02-28T09:20:17;2.10;66.70
24162;DHT22;12318;51.262;7.066;2023-02-28T09:22:43;2.20;62.30
24162;DHT22;12318;51.262;7.066;2023-02-28T09:25:09;2.20;61.00
24162;DHT22;12318;51.262;7.066;2023-02-28T09:27:34;2.10;59.90
24162;DHT22;12318;51.262;7.066;2023-02-28T09:30:00;1.90;60.60
24162;DHT22;12318;51.262;7.066;2023-02-28T09:32:26;1.90;61.40
24162;DHT22;12318;51.262;7.066;2023-02-28T09:34:52;2.00;61.50
24162;DHT22;12318;51.262;7.066;2023-02-28T09:37:18;2.10;61.90
24162;DHT22;12318;51.262;7.066;2023-02-28T09:39:43;2.20;60.80
24162;DHT22;12318;51.262;7.066;2023-02-28T09:42:21;2.50;61.50
24162;DHT22;12318;51.262;7.066;2023-02-28T09:44:48;2.50;59.90
24162;DHT22;12318;51.262;7.066;2023-02-28T09:47:29;2.40;59.10
24162;DHT22;12318;51.262;7.066;2023-02-28T09:49:59;2.30;59.50
24162;DHT22;12318;51.262;7.066;2023-02-28T09:52:30;2.20;59.50
24162;DHT22;12318;51.262;7.066;2023-02-28T09:55:47;2.10;60.20
24162;DHT22;12318;51.262;7.066;2023-02-28T09:57:50;2.20;61.90
24162;DHT22;12318;51.262;7.066;2023-02-28T10:00:40;2.20;62.30
24162;DHT22;12318;51.262;7.066;2023-02-28T10:03:18;2.20;59.90
24162;DHT22;12318;51.262;7.066;2023-02-28T10:05:57;2.30;61.00
24162;DHT22;12318;51.262;7.066;2023-02-28T10:10:57;2.20;59.70
24162;DHT22;12318;51.262;7.066;2023-02-28T10:19:05;2.30;58.90
24162;DHT22;12318;51.262;7.066;2023-02-28T10:21:57;2.40;58.50
24162;DHT22;12318;51.262;7.066;2023-02-28T10:24:32;2.70;59.10
24162;DHT22;12318;51.262;7.066;2023-02-28T10:27:19;2.40;57.70
24162;DHT22;12318;51.262;7.066;2023-02-28T10:29:52;2.30;58.20
24162;DHT22;12318;51.262;7.066;2023-02-28T10:32:24;2.20;58.10
24162;DHT22;12318;51.262;7.066;2023-02-28T10:37:30;2.10;58.90
24162;DHT22;12318;51.262;7.066;2023-02-28T10:39:57;2.10;59.20
24162;DHT22;12318;51.262;7.066;2023-02-28T10:42:26;2.00;58.20
24162;DHT22;12318;51.262;7.066;2023-02-28T10:45:12;2.10;59.00
24162;DHT22;12318;51.262;7.066;2023-02-28T10:55:40;2.40;58.50
24162;DHT22;12318;51.262;7.066;2023-02-28T10:58:25;2.70;58.50
24162;DHT22;12318;51.262;7.066;2023-02-28T11:00:58;2.60;56.70
24162;DHT22;12318;51.262;7.066;2023-02-28T11:03:29;2.90;57.20
24162;DHT22;12318;51.262;7.066;2023-02-28T11:05:55;2.80;56.50
24162;DHT22;12318;51.262;7.066;2023-02-28T11:08:21;2.80;57.30
24162;DHT22;12318;51.262;7.066;2023-02-28T11:10:54;2.80;58.20
24162;DHT22;12318;51.262;7.066;2023-02-28T11:13:26;2.80;56.50
24162;DHT22;12318;51.262;7.066;2023-02-28T11:15:58;2.80;55.60
24162;DHT22;12318;51.262;7.066;2023-02-28T11:18:52;2.80;54.80
24162;DHT22;12318;51.262;7.066;2023-02-28T11:21:26;2.80;55.70
24162;DHT22;12318;51.262;7.066;2023-02-28T11:26:47;3.20;54.80
24162;DHT22;12318;51.262;7.066;2023-02-28T11:29:27;3.30;54.50
24162;DHT22;12318;51.262;7.066;2023-02-28T11:32:21;3.20;54.50
24162;DHT22;12318;51.262;7.066;2023-02-28T11:35:04;3.10;53.80
24162;DHT22;12318;51.262;7.066;2023-02-28T11:37:40;3.10;55.60
24162;DHT22;12318;51.262;7.066;2023-02-28T11:40:13;3.30;54.50
24162;DHT22;12318;51.262;7.066;2023-02-28T11:48:21;3.30;55.70
24162;DHT22;12318;51.262;7.066;2023-02-28T11:51:10;3.20;57.40
24162;DHT22;12318;51.262;7.066;2023-02-28T11:53:55;3.30;58.80
24162;DHT22;12318;51.262;7.066;2023-02-28T11:59:46;4.10;59.20
24162;DHT22;12318;51.262;7.066;2023-02-28T12:02:24;3.40;57.40
24162;DHT22;12318;51.262;7.066;2023-02-28T12:07:49;3.10;60.30
24162;DHT22;12318;51.262;7.066;2023-02-28T12:10:28;3.30;58.80
24162;DHT22;12318;51.262;7.066;2023-02-28T12:15:48;3.30;58.70
24162;DHT22;12318;51.262;7.066;2023-02-28T12:28:36;3.20;57.40
24162;DHT22;12318;51.262;7.066;2023-02-28T12:31:14;3.40;56.70
24162;DHT22;12318;51.262;7.066;2023-02-28T12:33:52;3.50;55.30
24162;DHT22;12318;51.262;7.066;2023-02-28T12:36:19;3.60;55.60
24162;DHT22;12318;51.262;7.066;2023-02-28T12:39:03;3.70;54.30
24162;DHT22;12318;51.262;7.066;2023-02-28T12:42:03;3.70;55.00
24162;DHT22;12318;51.262;7.066;2023-02-28T12:44:44;4.00;54.90
24162;DHT22;12318;51.262;7.066;2023-02-28T12:47:50;4.00;54.10
24162;DHT22;12318;51.262;7.066;2023-02-28T12:50:25;4.10;55.70
24162;DHT22;12318;51.262;7.066;2023-02-28T12:52:59;3.80;55.70
24162;DHT22;12318;51.262;7.066;2023-02-28T12:55:35;3.90;56.80
24162;DHT22;12318;51.262;7.066;2023-02-28T12:58:29;3.90;56.20
24162;DHT22;12318;51.262;7.066;2023-02-28T13:09:26;4.30;56.60
24162;DHT22;12318;51.262;7.066;2023-02-28T13:12:29;4.20;55.80
24162;DHT22;12318;51.262;7.066;2023-02-28T13:14:49;4.20;55.20
24162;DHT22;12318;51.262;7.066;2023-02-28T13:17:21;4.10;56.00
24162;DHT22;12318;51.262;7.066;2023-02-28T13:22:47;4.40;55.60
24162;DHT22;12318;51.262;7.066;2023-02-28T13:27:49;4.10;55.90
24162;DHT22;12318;51.262;7.066;2023-02-28T13:33:32;4.50;57.80
24162;DHT22;12318;51.262;7.066;2023-02-28T13:38:46;4.20;55.80
24162;DHT22;12318;51.262;7.066;2023-02-28T13:46:29;4.40;57.60
24162;DHT22;12318;51.262;7.066;2023-02-28T13:48:58;4.40;57.00
24162;DHT22;12318;51.262;7.066;2023-02-28T13:51:45;4.60;57.30
24162;DHT22;12318;51.262;7.066;2023-02-28T14:03:29;4.30;56.10
24162;DHT22;12318;51.262;7.066;2023-02-28T14:09:00;4.70;56.40
24162;DHT22;12318;51.262;7.066;2023-02-28T14:11:45;4.80;57.30
24162;DHT22;12318;51.262;7.066;2023-02-28T14:17:12;4.80;56.20
24162;DHT22;12318;51.262;7.066;2023-02-28T14:19:45;4.70;55.10
24162;DHT22;12318;51.262;7.066;2023-02-28T14:22:51;4.70;54.40
24162;DHT22;12318;51.262;7.066;2023-02-28T14:25:33;4.80;55.10
24162;DHT22;12318;51.262;7.066;2023-02-28T14:30:57;4.60;56.70
24162;DHT22;12318;51.262;7.066;2023-02-28T14:33:38;4.50;55.30
24162;DHT22;12318;51.262;7.066;2023-02-28T14:36:16;4.50;55.50
24162;DHT22;12318;51.262;7.066;2023-02-28T14:38:50;4.60;56.40
24162;DHT22;12318;51.262;7.066;2023-02-28T14:41:31;4.70;58.10
24162;DHT22;12318;51.262;7.066;2023-02-28T14:44:01;4.80;56.80
24162;DHT22;12318;51.262;7.066;2023-02-28T14:46:50;4.80;56.30
24162;DHT22;12318;51.262;7.066;2023-02-28T14:49:28;4.80;56.80
24162;DHT22;12318;51.262;7.066;2023-02-28T14:52:22;4.80;58.20
24162;DHT22;12318;51.262;7.066;2023-02-28T14:54:57;4.90;56.60
24162;DHT22;12318;51.262;7.066;2023-02-28T14:57:27;4.70;55.70
24162;DHT22;12318;51.262;7.066;2023-02-28T15:02:41;4.50;57.00
24162;DHT22;12318;51.262;7.066;2023-02-28T15:08:32;4.40;57.00
24162;DHT22;12318;51.262;7.066;2023-02-28T15:11:16;4.50;56.70
24162;DHT22;12318;51.262;7.066;2023-02-28T15:13:47;4.40;56.70
24162;DHT22;12318;51.262;7.066;2023-02-28T15:16:26;4.30;56.70
24162;DHT22;12318;51.262;7.066;2023-02-28T15:19:02;4.50;57.60
24162;DHT22;12318;51.262;7.066;2023-02-28T15:21:36;4.40;57.40
24162;DHT22;12318;51.262;7.066;2023-02-28T15:26:55;4.40;58.50
24162;DHT22;12318;51.262;7.066;2023-02-28T15:29:24;4.30;58.70
24162;DHT22;12318;51.262;7.066;2023-02-28T15:31:58;4.40;59.80
24162;DHT22;12318;51.262;7.066;2023-02-28T15:34:38;4.40;58.80
24162;DHT22;12318;51.262;7.066;2023-02-28T15:37:29;4.40;58.50
24162;DHT22;12318;51.262;7.066;2023-02-28T15:39:57;4.30;59.50
24162;DHT22;12318;51.262;7.066;2023-02-28T15:42:29;4.30;59.60
24162;DHT22;12318;51.262;7.066;2023-02-28T15:44:55;4.40;59.30
24162;DHT22;12318;51.262;7.066;2023-02-28T15:47:25;4.40;60.10
24162;DHT22;12318;51.262;7.066;2023-02-28T15:50:04;4.30;60.60
24162;DHT22;12318;51.262;7.066;2023-02-28T15:52:39;4.30;59.70
24162;DHT22;12318;51.262;7.066;2023-02-28T15:55:18;4.20;59.20
24162;DHT22;12318;51.262;7.066;2023-02-28T15:57:46;4.20;59.20
24162;DHT22;12318;51.262;7.066;2023-02-28T16:00:16;4.20;59.70
24162;DHT22;12318;51.262;7.066;2023-02-28T16:02:44;4.20;60.40
24162;DHT22;12318;51.262;7.066;2023-02-28T16:05:18;4.10;61.70
24162;DHT22;12318;51.262;7.066;2023-02-28T16:07:46;4.00;62.80
24162;DHT22;12318;51.262;7.066;2023-02-28T16:10:14;4.00;64.60
24162;DHT22;12318;51.262;7.066;2023-02-28T16:12:40;4.00;65.40
24162;DHT22;12318;51.262;7.066;2023-02-28T16:15:19;3.80;65.30
24162;DHT22;12318;51.262;7.066;2023-02-28T16:17:46;3.80;65.40
24162;DHT22;12318;51.262;7.066;2023-02-28T16:20:30;3.80;66.60
24162;DHT22;12318;51.262;7.066;2023-02-28T16:22:56;3.80;65.40
24162;DHT22;12318;51.262;7.066;2023-02-28T16:25:40;3.70;65.50
24162;DHT22;12318;51.262;7.066;2023-02-28T16:28:21;3.80;65.40
24162;DHT22;12318;51.262;7.066;2023-02-28T16:30:51;3.60;65.10
24162;DHT22;12318;51.262;7.066;2023-02-28T16:33:18;3.70;65.50
24162;DHT22;12318;51.262;7.066;2023-02-28T16:35:43;3.70;64.30
24162;DHT22;12318;51.262;7.066;2023-02-28T16:38:09;3.70;64.10
24162;DHT22;12318;51.262;7.066;2023-02-28T16:40:36;3.60;64.10
24162;DHT22;12318;51.262;7.066;2023-02-28T16:43:05;3.50;64.70
24162;DHT22;12318;51.262;7.066;2023-02-28T16:45:32;3.50;65.00
24162;DHT22;12318;51.262;7.066;2023-02-28T16:47:59;3.60;65.10
24162;DHT22;12318;51.262;7.066;2023-02-28T16:50:29;3.60;65.20
24162;DHT22;12318;51.262;7.066;2023-02-28T16:52:57;3.50;65.70
24162;DHT22;12318;51.262;7.066;2023-02-28T16:55:25;3.50;65.30
24162;DHT22;12318;51.262;7.066;2023-02-28T16:57:53;3.50;65.10
24162;DHT22;12318;51.262;7.066;2023-02-28T17:00:20;3.40;66.70
24162;DHT22;12318;51.262;7.066;2023-02-28T17:02:46;3.40;66.20
24162;DHT22;12318;51.262;7.066;2023-02-28T17:05:12;3.30;67.00
24162;DHT22;12318;51.262;7.066;2023-02-28T17:07:39;3.30;66.90
24162;DHT22;12318;51.262;7.066;2023-02-28T17:10:20;3.20;68.20
24162;DHT22;12318;51.262;7.066;2023-02-28T17:12:46;3.20;68.40
24162;DHT22;12318;51.262;7.066;2023-02-28T17:15:14;3.00;69.60
24162;DHT22;12318;51.262;7.066;2023-02-28T17:17:41;3.00;70.30
24162;DHT22;12318;51.262;7.066;2023-02-28T17:20:15;3.10;70.00
24162;DHT22;12318;51.262;7.066;2023-02-28T17:22:41;3.10;70.00
24162;DHT22;12318;51.262;7.066;2023-02-28T17:25:09;3.10;70.00
24162;DHT22;12318;51.262;7.066;2023-02-28T17:27:36;3.10;70.20
24162;DHT22;12318;51.262;7.066;2023-02-28T17:30:08;2.90;70.90
24162;DHT22;12318;51.262;7.066;2023-02-28T17:32:34;2.80;71.30
24162;DHT22;12318;51.262;7.066;2023-02-28T17:35:00;2.90;71.00
24162;DHT22;12318;51.262;7.066;2023-02-28T17:37:26;2.90;71.50
24162;DHT22;12318;51.262;7.066;2023-02-28T17:39:51;2.80;71.80
24162;DHT22;12318;51.262;7.066;2023-02-28T17:42:17;2.80;72.00
24162;DHT22;12318;51.262;7.066;2023-02-28T17:44:43;2.70;72.50
24162;DHT22;12318;51.262;7.066;2023-02-28T17:47:11;2.60;73.00
24162;DHT22;12318;51.262;7.066;2023-02-28T17:49:37;2.70;72.70
24162;DHT22;12318;51.262;7.066;2023-02-28T17:52:03;2.80;72.40
24162;DHT22;12318;51.262;7.066;2023-02-28T17:54:29;2.70;72.60
24162;DHT22;12318;51.262;7.066;2023-02-28T17:56:55;2.70;72.80
24162;DHT22;12318;51.262;7.066;2023-02-28T17:59:20;2.60;73.00
24162;DHT22;12318;51.262;7.066;2023-02-28T18:01:46;2.60;73.60
24162;DHT22;12318;51.262;7.066;2023-02-28T18:04:13;2.50;73.70
24162;DHT22;12318;51.262;7.066;2023-02-28T18:06:45;2.40;75.10
24162;DHT22;12318;51.262;7.066;2023-02-28T18:09:20;2.40;74.60
24162;DHT22;12318;51.262;7.066;2023-02-28T18:11:50;2.40;74.70
24162;DHT22;12318;51.262;7.066;2023-02-28T18:14:19;2.40;75.20
24162;DHT22;12318;51.262;7.066;2023-02-28T18:16:45;2.50;75.00
24162;DHT22;12318;51.262;7.066;2023-02-28T18:19:12;2.40;74.70
24162;DHT22;12318;51.262;7.066;2023-02-28T18:21:43;2.40;75.00
24162;DHT22;12318;51.262;7.066;2023-02-28T18:24:09;2.40;74.90
24162;DHT22;12318;51.262;7.066;2023-02-28T18:26:36;2.50;74.70
24162;DHT22;12318;51.262;7.066;2023-02-28T18:29:03;2.50;74.70
24162;DHT22;12318;51.262;7.066;2023-02-28T18:31:29;2.30;75.20
24162;DHT22;12318;51.262;7.066;2023-02-28T18:33:58;2.30;75.40
24162;DHT22;12318;51.262;7.066;2023-02-28T18:36:25;2.30;75.80
24162;DHT22;12318;51.262;7.066;2023-02-28T18:38:51;2.30;76.70